Time;durP1;ratioP1;P1;durP2;ratioP2;P2;SDS_P1;SDS_P2;PMS_P1;PMS_P2;Temp;Humidity;BMP_temperature;BMP_pressure;BME280_temperature;BME280_humidity;BME280_pressure;Samples;Min_cycle;Max_cycle;Signal;HPM_P1;HPM_P2
2023/05/22 00:01:41;;;;;;;18.60;15.33;;;;;;;19.75;82.47;101343.53;5151809;28;20038;-80
2023/05/22 00:04:19;;;;;;;19.67;15.27;;;;;;;20.11;82.17;101389.97;5169429;28;20031;-80
2023/05/22 00:06:51;;;;;;;22.67;16.63;;;;;;;19.68;83.34;101347.72;5168356;28;20475;-79
2023/05/22 00:09:30;;;;;;;18.73;16.73;;;;;;;19.78;83.99;101364.50;5171233;28;20035;-79
2023/05/22 00:12:01;;;;;;;22.43;16.90;;;;;;;19.39;86.86;101357.34;5155584;28;20088;-79
2023/05/22 00:14:33;;;;;;;23.20;17.70;;;;;;;19.71;84.05;101356.25;5171098;28;20511;-79
2023/05/22 00:17:04;;;;;;;20.70;16.70;;;;;;;19.48;87.43;101389.38;5154909;28;20125;-80
2023/05/22 00:19:39;;;;;;;19.23;16.13;;;;;;;19.59;86.29;101366.19;5172267;28;20066;-80
2023/05/22 00:22:11;;;;;;;24.53;18.37;;;;;;;19.65;84.91;101358.63;5172642;28;20034;-79
2023/05/22 00:24:42;;;;;;;21.83;16.90;;;;;;;19.49;85.17;101344.06;5172587;28;20041;-82
2023/05/22 00:27:13;;;;;;;20.33;16.50;;;;;;;19.43;86.54;101341.97;5156475;28;20073;-82
2023/05/22 00:29:45;;;;;;;26.33;17.30;;;;;;;19.15;88.20;101326.69;5239807;28;20034;-82
2023/05/22 00:32:16;;;;;;;21.27;16.63;;;;;;;19.45;85.43;101326.72;5156049;28;20022;-82
2023/05/22 00:34:49;;;;;;;22.27;17.73;;;;;;;19.49;84.61;101333.47;5171944;28;20061;-80
2023/05/22 00:37:20;;;;;;;22.20;18.07;;;;;;;19.13;88.17;101330.47;5240359;28;20034;-81
2023/05/22 00:39:51;;;;;;;25.80;18.20;;;;;;;19.11;88.95;101335.94;5171382;28;20513;-80
2023/05/22 00:42:23;;;;;;;24.63;18.87;;;;;;;19.30;89.17;101374.09;5155746;28;20035;-81
2023/05/22 00:44:55;;;;;;;21.47;18.73;;;;;;;18.94;90.78;101345.31;5155219;28;20035;-80
2023/05/22 00:47:26;;;;;;;24.07;18.47;;;;;;;19.26;87.41;101336.38;5173158;28;20023;-81
2023/05/22 00:49:58;;;;;;;23.70;19.37;;;;;;;19.27;89.41;101379.69;5172438;28;20364;-81
2023/05/22 00:52:29;;;;;;;22.77;18.47;;;;;;;19.03;89.51;101335.72;5173263;28;20023;-81
2023/05/22 00:55:02;;;;;;;22.63;19.27;;;;;;;18.96;89.85;101333.63;5172582;28;20133;-81
2023/05/22 00:57:37;;;;;;;21.07;18.43;;;;;;;19.21;89.13;101350.06;5172699;28;20061;-82
2023/05/22 01:00:12;;;;;;;21.00;18.80;;;;;;;18.67;91.93;101320.25;5172521;28;20030;-81
2023/05/22 01:02:45;;;;;;;23.93;20.50;;;;;;;18.58;93.30;101325.41;5156778;28;20113;-80
2023/05/22 01:05:16;;;;;;;28.63;19.33;;;;;;;18.51;95.15;101337.50;5166991;28;20038;-79
2023/05/22 01:07:48;;;;;;;28.10;19.37;;;;;;;18.97;90.73;101345.09;5134387;28;20116;-80
2023/05/22 01:10:19;;;;;;;24.20;18.73;;;;;;;18.99;90.10;101340.44;5151846;29;20129;-80
2023/05/22 01:13:20;;;;;;;22.40;18.43;;;;;;;18.88;93.56;101348.53;5151766;29;20030;-81
2023/05/22 01:16:00;;;;;;;21.33;18.63;;;;;;;19.03;91.36;101351.63;5134344;28;20051;-81
2023/05/22 01:18:57;;;;;;;23.53;19.10;;;;;;;18.83;93.99;101355.06;5151780;29;20034;-81
2023/05/22 01:21:45;;;;;;;23.87;19.53;;;;;;;19.07;89.46;101334.47;5150302;29;20028;-80
2023/05/22 01:24:40;;;;;;;20.80;18.50;;;;;;;19.10;91.40;101366.06;5150688;29;20042;-80
2023/05/22 01:27:41;;;;;;;22.00;19.03;;;;;;;19.10;88.35;101326.25;5151602;29;20031;-80
2023/05/22 01:31:05;;;;;;;25.13;19.63;;;;;;;19.24;90.53;101372.81;5151849;29;20027;-81
2023/05/22 01:33:47;;;;;;;20.47;17.00;;;;;;;19.09;89.71;101343.97;5109433;29;20066;-81
2023/05/22 01:36:23;;;;;;;24.10;19.17;;;;;;;18.62;91.70;101305.56;5136060;29;20554;-80
2023/05/22 01:38:55;;;;;;;21.93;18.27;;;;;;;18.48;93.53;101332.47;5166609;28;20049;-80
2023/05/22 01:41:28;;;;;;;24.83;19.37;;;;;;;18.45;93.61;101314.19;5171751;28;20069;-81
2023/05/22 01:44:00;;;;;;;23.57;17.90;;;;;;;18.70;92.07;101343.84;5171299;28;20030;-80
2023/05/22 01:46:32;;;;;;;24.63;18.33;;;;;;;18.69;90.92;101332.44;5171803;28;20058;-80
2023/05/22 01:49:03;;;;;;;22.53;18.37;;;;;;;18.62;90.64;101321.47;5171645;28;20114;-81
2023/05/22 01:51:50;;;;;;;23.53;16.60;;;;;;;18.60;91.60;101306.69;5153406;28;20041;-81
2023/05/22 01:54:30;;;;;;;23.30;17.50;;;;;;;18.53;94.36;101359.44;5171824;28;20114;-81
2023/05/22 01:57:12;;;;;;;27.40;17.13;;;;;;;18.64;93.14;101339.09;5172007;28;20058;-81
2023/05/22 01:59:58;;;;;;;26.37;18.70;;;;;;;18.66;93.79;101350.41;5170926;28;20083;-81
2023/05/22 02:02:31;;;;;;;23.40;19.57;;;;;;;18.22;93.61;101298.44;5153986;28;20065;-81
2023/05/22 02:05:04;;;;;;;25.90;17.70;;;;;;;18.31;94.15;101329.44;5170133;28;20052;-81
2023/05/22 02:07:38;;;;;;;26.43;18.03;;;;;;;18.12;95.30;101315.06;5171187;28;20041;-81
2023/05/22 02:10:10;;;;;;;18.38;16.27;;;;;;;18.18;94.47;101316.41;5171079;28;20030;-80
2023/05/22 02:12:42;;;;;;;22.87;19.20;;;;;;;18.01;96.42;101337.19;5171498;28;20019;-82
2023/05/22 02:15:14;;;;;;;26.03;18.63;;;;;;;17.82;99.11;101323.81;5194907;28;20055;-82
2023/05/22 02:17:48;;;;;;;24.40;17.90;;;;;;;18.07;96.06;101319.09;5152418;29;20590;-82
2023/05/22 02:20:19;;;;;;;23.27;17.98;;;;;;;17.82;97.72;101308.72;5217618;28;20031;-82
2023/05/22 02:22:51;;;;;;;21.10;17.60;;;;;;;17.81;98.10;101306.22;5218012;28;20624;-82
2023/05/22 02:25:22;;;;;;;25.03;18.30;;;;;;;17.70;100.00;101346.88;5234993;28;20341;-83
2023/05/22 02:27:54;;;;;;;26.40;19.27;;;;;;;17.72;98.71;101298.09;5142187;28;20031;-82
2023/05/22 02:30:25;;;;;;;22.23;18.30;;;;;;;17.87;97.08;101292.47;5198468;28;20380;-81
2023/05/22 02:32:59;;;;;;;22.97;19.10;;;;;;;17.77;97.71;101289.75;5180510;28;20151;-82
2023/05/22 02:35:31;;;;;;;24.33;19.30;;;;;;;17.87;97.24;101298.59;5237882;28;20024;-81
2023/05/22 02:38:02;;;;;;;23.83;18.87;;;;;;;17.94;96.73;101296.28;5256753;28;20025;-81
2023/05/22 02:40:34;;;;;;;24.17;19.27;;;;;;;17.63;99.07;101283.78;5256018;28;20029;-81
2023/05/22 02:43:05;;;;;;;26.17;19.13;;;;;;;17.58;100.00;101296.56;5255826;28;20021;-81
2023/05/22 02:45:36;;;;;;;24.63;19.20;;;;;;;17.96;98.12;101317.34;5237962;28;20032;-82
2023/05/22 02:48:08;;;;;;;20.53;18.33;;;;;;;17.85;97.83;101294.41;5256553;28;20031;-82
2023/05/22 02:50:42;;;;;;;23.83;18.77;;;;;;;17.89;98.38;101303.78;5237375;28;20032;-81
2023/05/22 02:53:15;;;;;;;26.30;18.07;;;;;;;17.84;97.99;101280.31;5255609;28;20021;-79
2023/05/22 02:55:47;;;;;;;28.50;19.90;;;;;;;17.63;100.00;101283.78;5254916;28;20327;-79
2023/05/22 02:58:20;;;;;;;26.23;18.37;;;;;;;17.68;98.13;101267.50;5254576;28;20062;-80
2023/05/22 03:00:52;;;;;;;21.87;19.27;;;;;;;17.80;100.00;101331.03;5254723;28;20025;-79
2023/05/22 03:03:24;;;;;;;26.87;20.57;;;;;;;17.41;100.00;101308.56;5253114;28;20029;-80
2023/05/22 03:05:57;;;;;;;25.13;19.60;;;;;;;17.55;100.00;101294.19;5253693;28;20396;-80
2023/05/22 03:08:30;;;;;;;25.03;18.83;;;;;;;17.81;99.99;101308.88;5236013;28;20075;-78
2023/05/22 03:11:01;;;;;;;29.83;20.50;;;;;;;17.64;100.00;101296.09;5254287;28;20049;-79
2023/05/22 03:13:33;;;;;;;23.90;18.37;;;;;;;17.51;100.00;101311.28;5237659;28;20072;-81
2023/05/22 03:16:04;;;;;;;27.67;19.73;;;;;;;17.55;100.00;101280.94;5247564;28;20095;-78
2023/05/22 03:18:36;;;;;;;22.33;18.70;;;;;;;17.74;98.58;101295.28;5169782;28;20455;-78
2023/05/22 03:21:07;;;;;;;26.00;19.23;;;;;;;17.62;99.05;101282.13;5168798;28;20027;-79
2023/05/22 03:23:38;;;;;;;24.60;19.03;;;;;;;17.68;98.51;101285.22;5168504;28;20149;-80
2023/05/22 03:26:10;;;;;;;25.20;18.77;;;;;;;17.64;99.47;101295.25;5169752;28;20033;-80
2023/05/22 03:28:41;;;;;;;24.33;18.97;;;;;;;17.29;99.47;101249.53;5154285;28;20023;-81
2023/05/22 03:31:14;;;;;;;22.13;17.57;;;;;;;17.48;99.08;101275.31;5148794;29;20033;-80
2023/05/22 03:33:45;;;;;;;24.17;18.30;;;;;;;17.47;99.62;101280.75;5149566;29;20138;-80
2023/05/22 03:36:18;;;;;;;25.23;18.60;;;;;;;17.43;99.49;101293.41;5149002;29;20503;-80
2023/05/22 03:38:49;;;;;;;26.90;18.77;;;;;;;17.32;99.29;101274.91;5149221;29;20545;-79
2023/05/22 03:41:21;;;;;;;27.40;18.07;;;;;;;17.37;99.87;101293.88;5149717;29;20067;-80
2023/05/22 03:43:52;;;;;;;23.97;17.73;;;;;;;17.32;100.00;101319.91;5150376;28;20032;-80
2023/05/22 03:46:24;;;;;;;25.53;18.67;;;;;;;17.40;100.00;101331.53;5151997;29;20035;-78
2023/05/22 03:48:55;;;;;;;26.20;18.73;;;;;;;16.86;100.00;101288.22;5152489;29;20114;-78
2023/05/22 03:51:26;;;;;;;27.80;19.20;;;;;;;16.95;100.00;101278.72;5151201;29;20031;-79
2023/05/22 03:53:58;;;;;;;26.10;17.93;;;;;;;16.95;100.00;101281.38;5152612;29;20032;-78
2023/05/22 03:56:29;;;;;;;26.13;18.93;;;;;;;17.10;100.00;101277.50;5150954;28;20027;-80
2023/05/22 03:59:01;;;;;;;26.60;18.00;;;;;;;17.24;100.00;101300.22;5152758;29;20774;-80
2023/05/22 04:01:32;;;;;;;25.53;18.60;;;;;;;17.19;100.00;101297.09;5163548;28;20176;-80
2023/05/22 04:04:04;;;;;;;28.33;19.37;;;;;;;16.91;100.00;101275.47;5172577;28;20046;-79
2023/05/22 04:06:41;;;;;;;26.23;19.43;;;;;;;17.05;100.00;101274.38;5171437;28;20542;-79
2023/05/22 04:09:14;;;;;;;30.23;19.73;;;;;;;16.89;100.00;101285.34;5172326;28;20055;-79
2023/05/22 04:11:47;;;;;;;23.60;18.37;;;;;;;16.79;100.00;101248.22;5158798;28;20042;-80
2023/05/22 04:14:19;;;;;;;29.03;18.50;;;;;;;17.17;100.00;101314.91;5151128;28;20137;-80
2023/05/22 04:16:50;;;;;;;30.37;19.13;;;;;;;16.99;100.00;101286.28;5167376;28;20110;-80
2023/05/22 04:19:21;;;;;;;28.70;18.10;;;;;;;17.11;100.00;101315.38;5172163;28;20084;-81
2023/05/22 04:21:53;;;;;;;26.37;18.90;;;;;;;16.86;100.00;101290.88;5171110;28;20552;-81
2023/05/22 04:24:26;;;;;;;28.50;19.50;;;;;;;16.98;100.00;101289.06;5172645;28;20485;-80
2023/05/22 04:26:59;;;;;;;25.47;18.40;;;;;;;16.89;100.00;101286.19;5172088;28;20031;-80
2023/05/22 04:29:30;;;;;;;29.37;19.70;;;;;;;16.64;100.00;101290.78;5172442;28;20023;-79
2023/05/22 04:32:01;;;;;;;31.70;19.00;;;;;;;16.73;100.00;101291.84;5173106;28;20023;-82
2023/05/22 04:34:36;;;;;;;25.20;19.40;;;;;;;16.74;100.00;101287.41;5186764;28;20046;-81
2023/05/22 04:37:08;;;;;;;24.65;19.00;;;;;;;16.96;100.00;101301.56;5173133;28;20046;-81
2023/05/22 04:39:40;;;;;;;29.67;19.73;;;;;;;16.92;100.00;101306.25;5172639;28;20046;-81
2023/05/22 04:42:13;;;;;;;34.30;20.83;;;;;;;16.59;100.00;101316.72;5172984;28;20031;-81
2023/05/22 04:44:45;;;;;;;39.27;22.47;;;;;;;16.58;100.00;101307.13;5172092;28;20053;-81
2023/05/22 04:47:16;;;;;;;27.10;21.37;;;;;;;17.07;100.00;101354.44;5171875;28;20027;-82
2023/05/22 04:49:47;;;;;;;32.37;21.30;;;;;;;16.84;100.00;101314.81;5171840;28;20037;-82
2023/05/22 04:52:20;;;;;;;32.63;21.60;;;;;;;16.84;100.00;101298.09;5173353;28;20065;-81
2023/05/22 04:54:51;;;;;;;31.67;20.67;;;;;;;16.90;100.00;101301.06;5171718;28;20118;-81
2023/05/22 04:57:24;;;;;;;29.43;22.37;;;;;;;17.07;100.00;101346.50;5171776;28;20038;-82
2023/05/22 04:59:56;;;;;;;35.03;23.63;;;;;;;17.04;100.00;101328.22;5172632;28;20022;-81
2023/05/22 05:02:27;;;;;;;30.33;22.43;;;;;;;16.99;100.00;101318.03;5171988;28;20023;-79
2023/05/22 05:04:59;;;;;;;39.93;24.60;;;;;;;17.11;100.00;101341.84;5170474;28;20035;-80
2023/05/22 05:07:30;;;;;;;28.77;22.40;;;;;;;16.97;100.00;101329.69;5171329;28;20105;-80
2023/05/22 05:10:01;;;;;;;36.97;24.27;;;;;;;17.10;100.00;101325.16;5170431;28;20057;-79
2023/05/22 05:12:33;;;;;;;35.63;24.60;;;;;;;17.03;100.00;101335.34;5170579;28;20019;-80
2023/05/22 05:15:05;;;;;;;36.33;23.97;;;;;;;17.11;100.00;101366.50;5153826;28;20055;-80
2023/05/22 05:17:36;;;;;;;33.80;23.10;;;;;;;16.96;100.00;101338.59;5151693;28;20047;-80
2023/05/22 05:20:09;;;;;;;36.10;23.50;;;;;;;16.87;100.00;101324.28;5150795;28;20039;-79
2023/05/22 05:22:42;;;;;;;30.17;23.83;;;;;;;16.97;100.00;101348.19;5151479;28;20039;-79
2023/05/22 05:25:14;;;;;;;31.58;22.80;;;;;;;16.79;100.00;101338.13;5134508;28;20126;-79
2023/05/22 05:27:45;;;;;;;37.50;22.83;;;;;;;16.93;100.00;101331.75;5159824;28;20106;-81
2023/05/22 05:30:17;;;;;;;37.07;24.00;;;;;;;17.25;100.00;101380.44;5172632;28;20117;-81
2023/05/22 05:32:49;;;;;;;34.80;24.57;;;;;;;16.92;100.00;101338.00;5171648;28;20019;-82
2023/05/22 05:35:20;;;;;;;35.73;22.77;;;;;;;17.03;100.00;101329.22;5170747;28;20018;-80
2023/05/22 05:37:51;;;;;;;39.07;25.57;;;;;;;17.16;100.00;101345.81;5169432;28;20110;-80
2023/05/22 05:40:23;;;;;;;30.33;22.53;;;;;;;17.20;100.00;101341.13;5170750;28;20029;-80
2023/05/22 05:42:55;;;;;;;38.00;24.93;;;;;;;17.07;100.00;101330.63;5159761;28;20061;-79
2023/05/22 05:45:26;;;;;;;34.50;24.63;;;;;;;17.03;100.00;101331.84;5153541;28;20027;-80
2023/05/22 05:47:58;;;;;;;38.47;24.97;;;;;;;16.75;100.00;101304.94;5170013;28;20027;-80
2023/05/22 05:50:29;;;;;;;38.23;25.83;;;;;;;17.23;100.00;101347.94;5167487;28;20441;-80
2023/05/22 05:53:01;;;;;;;32.70;22.17;;;;;;;17.19;100.00;101350.03;5172099;28;20037;-80
2023/05/22 05:55:32;;;;;;;32.27;24.67;;;;;;;17.20;100.00;101335.81;5172504;28;20076;-81
2023/05/22 05:58:06;;;;;;;40.70;24.67;;;;;;;17.12;100.00;101319.72;5171422;28;20019;-81
2023/05/22 06:00:37;;;;;;;42.75;24.10;;;;;;;17.36;100.00;101355.75;5170942;28;20027;-80
2023/05/22 06:03:09;;;;;;;34.03;24.63;;;;;;;17.18;100.00;101337.75;5134092;28;20073;-80
2023/05/22 06:05:40;;;;;;;32.37;24.73;;;;;;;17.44;100.00;101360.44;5157128;28;20098;-82
2023/05/22 06:08:12;;;;;;;35.43;26.07;;;;;;;17.20;100.00;101329.69;5156414;28;20023;-79
2023/05/22 06:10:44;;;;;;;36.80;25.53;;;;;;;17.46;100.00;101367.28;5153806;28;20076;-80
2023/05/22 06:13:15;;;;;;;39.93;25.97;;;;;;;17.60;100.00;101354.72;5170674;28;20058;-79
2023/05/22 06:15:47;;;;;;;40.27;25.03;;;;;;;17.61;100.00;101348.47;5165732;28;20043;-81
2023/05/22 06:18:18;;;;;;;36.50;24.97;;;;;;;17.54;100.00;101345.47;5165493;28;20039;-80
2023/05/22 06:20:50;;;;;;;46.87;27.77;;;;;;;17.66;100.00;101349.75;5169141;28;20434;-78
2023/05/22 06:23:22;;;;;;;42.60;28.47;;;;;;;17.76;100.00;101357.78;5167191;28;20081;-79
2023/05/22 06:25:54;;;;;;;39.73;26.50;;;;;;;17.76;100.00;101356.94;5160787;28;20038;-79
2023/05/22 06:28:25;;;;;;;43.93;28.57;;;;;;;17.84;100.00;101378.34;5142778;28;20580;-80
2023/05/22 06:30:57;;;;;;;42.10;26.43;;;;;;;17.74;100.00;101364.16;5170478;28;20022;-80
2023/05/22 06:33:28;;;;;;;49.40;30.03;;;;;;;17.86;100.00;101376.41;5174349;28;20026;-79
2023/05/22 06:35:59;;;;;;;39.90;27.67;;;;;;;17.79;100.00;101372.56;5164735;28;20011;-78
2023/05/22 06:38:31;;;;;;;39.70;28.80;;;;;;;17.76;100.00;101341.91;5151626;28;20053;-79
2023/05/22 06:41:03;;;;;;;42.47;28.83;;;;;;;17.87;100.00;101372.78;5170567;28;20471;-80
2023/05/22 06:43:34;;;;;;;41.97;26.43;;;;;;;17.88;100.00;101370.97;5169742;28;20082;-79
2023/05/22 06:46:05;;;;;;;44.83;28.30;;;;;;;18.01;100.00;101384.88;5168273;28;20050;-78
2023/05/22 06:48:37;;;;;;;50.03;30.50;;;;;;;18.02;100.00;101389.22;5151694;28;20033;-78
2023/05/22 06:51:11;;;;;;;37.90;29.97;;;;;;;18.10;100.00;101393.06;5163767;28;20053;-78
2023/05/22 06:53:42;;;;;;;50.30;31.67;;;;;;;18.09;100.00;101375.44;5149348;28;20094;-78
2023/05/22 06:56:14;;;;;;;48.57;34.27;;;;;;;18.20;100.00;101393.16;5131638;28;20168;-79
2023/05/22 06:58:45;;;;;;;50.20;34.20;;;;;;;18.07;100.00;101375.59;5167036;28;20106;-79
2023/05/22 07:01:17;;;;;;;61.70;37.23;;;;;;;18.01;100.00;101384.88;5152637;28;20493;-80
2023/05/22 07:03:48;;;;;;;56.27;37.57;;;;;;;18.12;100.00;101389.28;5167827;28;20042;-80
2023/05/22 07:06:20;;;;;;;61.87;40.67;;;;;;;18.11;100.00;101398.22;5170073;28;20023;-81
2023/05/22 07:08:51;;;;;;;57.27;40.13;;;;;;;18.08;100.00;101408.25;5169036;28;20102;-81
2023/05/22 07:11:22;;;;;;;60.27;41.37;;;;;;;18.04;100.00;101397.06;5170649;28;20027;-80
2023/05/22 07:13:54;;;;;;;58.97;40.90;;;;;;;18.13;100.00;101420.16;5170242;28;20386;-81
2023/05/22 07:16:25;;;;;;;60.47;43.57;;;;;;;17.97;100.00;101411.78;5161398;28;20077;-81
2023/05/22 07:18:56;;;;;;;61.30;41.67;;;;;;;18.11;100.00;101414.13;5148045;28;20062;-80
2023/05/22 07:21:30;;;;;;;67.40;43.03;;;;;;;18.02;100.00;101409.59;5133261;28;20027;-80
2023/05/22 07:24:06;;;;;;;67.60;42.45;;;;;;;18.05;100.00;101413.81;5150101;28;20023;-80
2023/05/22 07:26:45;;;;;;;61.83;40.90;;;;;;;17.99;100.00;101386.00;5132294;28;20451;-78
2023/05/22 07:29:16;;;;;;;64.50;44.67;;;;;;;17.97;100.00;101414.41;5167150;28;20050;-79
2023/05/22 07:31:47;;;;;;;62.57;43.33;;;;;;;18.09;100.00;101402.81;5149168;28;20679;-80
2023/05/22 07:34:19;;;;;;;62.20;42.87;;;;;;;18.07;100.00;101407.38;5131612;28;20027;-80
2023/05/22 07:36:50;;;;;;;60.03;44.13;;;;;;;18.28;100.00;101413.69;5149282;28;20042;-80
2023/05/22 07:39:22;;;;;;;58.10;43.40;;;;;;;18.22;100.00;101409.78;5149563;28;20070;-80
2023/05/22 07:41:53;;;;;;;66.23;44.03;;;;;;;18.18;100.00;101392.44;5161968;28;20030;-80
2023/05/22 07:44:25;;;;;;;71.37;47.97;;;;;;;18.23;100.00;101406.13;5152195;28;20030;-81
2023/05/22 07:46:56;;;;;;;66.23;45.30;;;;;;;18.38;100.00;101415.44;5169763;28;20042;-81
2023/05/22 07:49:28;;;;;;;68.17;44.07;;;;;;;18.53;100.00;101415.13;5157583;28;20033;-81
2023/05/22 07:51:59;;;;;;;58.30;42.93;;;;;;;18.53;100.00;101417.78;5148918;28;20038;-80
2023/05/22 07:54:30;;;;;;;70.57;43.50;;;;;;;18.88;100.00;101446.72;5132095;28;20456;-81
2023/05/22 07:57:02;;;;;;;66.47;46.07;;;;;;;18.88;100.00;101450.22;5149540;28;20033;-81
2023/05/22 07:59:34;;;;;;;61.33;46.27;;;;;;;18.71;100.00;101425.16;5135647;28;20080;-81
2023/05/22 08:02:07;;;;;;;66.33;46.80;;;;;;;18.71;100.00;101418.00;5169514;28;20034;-79
2023/05/22 08:04:38;;;;;;;71.13;48.27;;;;;;;18.73;100.00;101415.22;5168377;28;20030;-79
2023/05/22 08:07:09;;;;;;;56.07;41.60;;;;;;;18.73;100.00;101412.56;5168979;28;20031;-79
2023/05/22 08:09:44;;;;;;;55.53;41.53;;;;;;;18.97;100.00;101420.22;5168340;28;20499;-78
2023/05/22 08:12:16;;;;;;;63.87;42.53;;;;;;;19.22;100.00;101442.00;5155706;28;20036;-78
2023/05/22 08:14:47;;;;;;;67.30;44.77;;;;;;;19.09;100.00;101413.00;5148148;28;20059;-78
2023/05/22 08:17:18;;;;;;;60.13;44.63;;;;;;;19.32;100.00;101439.38;5131750;28;20039;-79
2023/05/22 08:19:50;;;;;;;65.43;46.67;;;;;;;19.35;100.00;101422.34;5153238;28;20133;-80
2023/05/22 08:22:21;;;;;;;72.67;49.07;;;;;;;19.34;100.00;101426.78;5168911;28;20453;-81
2023/05/22 08:24:52;;;;;;;74.07;50.90;;;;;;;19.38;100.00;101411.44;5168796;28;20421;-81
2023/05/22 08:27:24;;;;;;;74.70;49.77;;;;;;;19.56;100.00;101430.22;5145837;28;20533;-82
2023/05/22 08:29:55;;;;;;;79.07;50.33;;;;;;;19.69;100.00;101440.56;5132817;28;20490;-82
2023/05/22 08:32:27;;;;;;;74.90;51.60;;;;;;;19.58;100.00;101417.59;5135026;29;20067;-82
2023/05/22 08:34:58;;;;;;;72.93;50.23;;;;;;;19.55;98.91;101396.63;5150993;29;20035;-81
2023/05/22 08:37:30;;;;;;;69.23;51.23;;;;;;;19.77;98.50;101421.28;5152136;29;20031;-81
2023/05/22 08:40:05;;;;;;;78.83;54.50;;;;;;;19.70;99.71;101410.38;5156728;28;20030;-81
2023/05/22 08:42:37;;;;;;;75.97;53.27;;;;;;;19.77;97.68;101401.84;5171702;28;20034;-80
2023/05/22 08:45:09;;;;;;;71.57;52.70;;;;;;;20.01;97.37;101411.19;5171202;28;20532;-80
2023/05/22 08:47:43;;;;;;;71.13;54.63;;;;;;;20.26;95.89;101420.47;5172064;28;20030;-83
2023/05/22 08:50:15;;;;;;;73.30;54.67;;;;;;;20.47;93.78;101432.75;5171372;28;20046;-82
2023/05/22 08:52:53;;;;;;;77.10;55.23;;;;;;;20.60;93.65;101426.25;5171833;28;20011;-81
2023/05/22 08:55:25;;;;;;;78.53;55.33;;;;;;;20.39;92.77;101409.50;5170152;28;20463;-81
2023/05/22 08:57:57;;;;;;;77.33;55.40;;;;;;;20.73;91.27;101417.97;5154558;28;20034;-81
2023/05/22 09:00:29;;;;;;;73.57;54.50;;;;;;;20.94;90.98;101412.44;5171819;28;20077;-80
2023/05/22 09:03:05;;;;;;;72.33;53.20;;;;;;;21.29;87.86;101436.66;5169885;28;20370;-81
2023/05/22 09:05:38;;;;;;;74.03;53.80;;;;;;;21.59;85.73;101444.47;5171720;28;20030;-80
2023/05/22 09:08:09;;;;;;;73.43;55.30;;;;;;;21.68;84.50;101443.56;5154350;28;20344;-80
2023/05/22 09:10:41;;;;;;;71.87;51.83;;;;;;;21.76;82.56;101424.97;5169955;28;20033;-81
2023/05/22 09:13:23;;;;;;;64.80;50.87;;;;;;;22.33;81.26;101438.13;5184195;28;20021;-81
2023/05/22 09:16:21;;;;;;;64.13;50.77;;;;;;;22.58;79.96;101449.00;5277698;28;20529;-80
2023/05/22 09:18:52;;;;;;;59.07;46.37;;;;;;;22.17;77.80;101405.00;5274594;28;20029;-81
2023/05/22 09:21:26;;;;;;;63.03;50.20;;;;;;;22.33;76.58;101416.78;5278243;28;20034;-81
2023/05/22 09:23:59;;;;;;;60.80;48.33;;;;;;;22.74;75.93;101434.09;5277402;28;20025;-81
2023/05/22 09:26:32;;;;;;;60.60;47.33;;;;;;;22.66;73.10;101419.69;5205671;28;20031;-81
2023/05/22 09:29:06;;;;;;;57.70;47.60;;;;;;;22.80;72.01;101412.94;5162828;28;20037;-80
2023/05/22 09:31:42;;;;;;;60.83;46.60;;;;;;;23.23;71.96;101390.72;5144066;28;20022;-81
2023/05/22 09:34:14;;;;;;;56.53;45.08;;;;;;;23.55;67.78;101415.03;5170523;28;20027;-80
2023/05/22 09:36:45;;;;;;;63.72;45.83;;;;;;;23.73;65.63;101400.69;5165883;28;20082;-81
2023/05/22 09:39:17;;;;;;;56.05;45.20;;;;;;;23.99;64.69;101408.53;5155754;28;20047;-81
2023/05/22 09:41:49;;;;;;;52.65;43.55;;;;;;;24.11;64.97;101418.88;5167110;28;20027;-80
2023/05/22 09:44:25;;;;;;;53.88;41.78;;;;;;;24.46;65.00;101440.13;5151695;28;20095;-80
2023/05/22 09:46:56;;;;;;;48.40;41.35;;;;;;;24.38;62.90;101398.97;5167750;28;20027;-80
2023/05/22 09:49:28;;;;;;;49.78;39.55;;;;;;;24.54;63.34;101426.75;5169126;28;20027;-80
2023/05/22 09:52:01;;;;;;;46.92;40.10;;;;;;;24.76;62.13;101406.41;5169570;28;20026;-80
2023/05/22 09:54:33;;;;;;;50.83;40.22;;;;;;;25.09;60.11;101420.69;5169404;28;20089;-81
2023/05/22 09:57:08;;;;;;;44.13;38.45;;;;;;;24.78;60.03;101391.00;5162308;28;20038;-81
2023/05/22 09:59:42;;;;;;;45.38;37.15;;;;;;;24.83;60.83;101403.88;5169243;28;20034;-80
2023/05/22 10:02:14;;;;;;;45.00;38.08;;;;;;;25.04;60.10;101431.09;5169341;28;20072;-81
2023/05/22 10:04:48;;;;;;;41.38;36.60;;;;;;;25.03;59.05;101400.78;5163145;28;20031;-81
2023/05/22 10:07:36;;;;;;;47.88;37.53;;;;;;;25.75;59.42;101406.06;5189218;28;20478;-81
2023/05/22 10:10:10;;;;;;;43.50;35.75;;;;;;;25.86;57.51;101420.91;5189528;28;20025;-81
2023/05/22 10:12:46;;;;;;;40.72;34.72;;;;;;;26.47;55.20;101424.56;5188888;28;20023;-80
2023/05/22 10:15:19;;;;;;;39.55;33.60;;;;;;;26.49;53.98;101398.38;5183078;28;20054;-80
2023/05/22 10:17:51;;;;;;;38.42;31.95;;;;;;;26.94;52.45;101378.66;5167963;28;20031;-80
2023/05/22 10:20:24;;;;;;;39.92;32.40;;;;;;;27.16;51.22;101386.81;5169543;28;20023;-80
2023/05/22 10:22:55;;;;;;;38.88;32.83;;;;;;;27.77;49.31;101417.81;5168818;28;20110;-80
2023/05/22 10:25:27;;;;;;;39.42;32.70;;;;;;;27.85;48.80;101410.66;5151290;28;20122;-81
2023/05/22 10:27:59;;;;;;;33.80;30.25;;;;;;;28.33;47.83;101390.28;5168905;28;20062;-81
2023/05/22 10:30:43;;;;;;;34.72;30.85;;;;;;;28.71;46.01;101438.38;5151015;28;20023;-80
2023/05/22 10:33:22;;;;;;;35.63;29.63;;;;;;;29.01;46.75;101390.66;5144599;28;20023;-80
2023/05/22 10:35:57;;;;;;;33.80;30.38;;;;;;;28.94;45.93;101412.97;5148599;29;20479;-80
2023/05/22 10:38:54;;;;;;;31.48;28.15;;;;;;;29.43;47.22;101434.50;5148492;29;20027;-81
2023/05/22 10:41:26;;;;;;;35.83;29.48;;;;;;;29.30;44.87;101426.41;5148609;28;20019;-81
2023/05/22 10:43:57;;;;;;;34.13;29.23;;;;;;;29.12;43.85;101398.13;5148289;29;20088;-80
2023/05/22 10:46:35;;;;;;;35.03;28.23;;;;;;;28.92;46.20;101415.03;5148716;29;20057;-81
2023/05/22 10:49:08;;;;;;;36.45;27.80;;;;;;;28.81;45.30;101399.44;5130129;29;20106;-80
2023/05/22 10:51:40;;;;;;;;;;;;;;;30.43;45.43;101421.25;5148987;29;20023;-81
2023/05/22 10:54:11;;;;;;;32.88;29.10;;;;;;;29.32;44.68;101406.25;5148145;28;20338;-81
2023/05/22 10:56:42;;;;;;;30.15;25.88;;;;;;;29.85;42.89;101387.66;5131242;29;20406;-80
2023/05/22 10:59:14;;;;;;;30.10;26.27;;;;;;;29.78;41.58;101382.25;5131602;28;20311;-81
2023/05/22 11:01:45;;;;;;;28.02;25.20;;;;;;;30.01;42.82;101407.16;5148193;29;20346;-82
2023/05/22 11:04:17;;;;;;;30.60;27.33;;;;;;;29.39;42.73;101400.06;5147375;29;20809;-81
2023/05/22 11:07:03;;;;;;;28.27;25.42;;;;;;;30.14;43.26;101373.91;5148479;28;20387;-81
2023/05/22 11:09:46;;;;;;;34.53;26.33;;;;;;;30.10;43.92;101368.09;5147922;28;20023;-82
2023/05/22 11:12:24;;;;;;;30.25;26.20;;;;;;;29.86;43.51;101407.38;5131198;28;20911;-80
2023/05/22 11:15:05;;;;;;;29.52;23.95;;;;;;;30.03;41.70;101364.56;5147414;28;20101;-80
2023/05/22 11:17:41;;;;;;;27.80;24.90;;;;;;;29.79;42.79;101353.41;5147167;28;20035;-80
2023/05/22 11:20:21;;;;;;;35.50;24.38;;;;;;;29.85;42.61;101363.34;5147793;28;20051;-80
2023/05/22 11:23:02;;;;;;;34.63;26.65;;;;;;;29.83;41.70;101368.16;5162815;28;20070;-79
2023/05/22 11:25:35;;;;;;;29.77;22.42;;;;;;;29.67;43.95;101372.91;5206854;28;20037;-78
2023/05/22 11:28:06;;;;;;;30.05;25.27;;;;;;;29.81;42.54;101383.72;5243993;28;20032;-79
2023/05/22 11:30:38;;;;;;;30.65;25.15;;;;;;;29.98;41.66;101373.31;5203444;28;20352;-80
2023/05/22 11:33:11;;;;;;;30.83;23.60;;;;;;;29.79;41.77;101365.03;5230986;28;20025;-79
2023/05/22 11:35:46;;;;;;;30.23;23.73;;;;;;;29.58;42.97;101388.47;5204290;28;20442;-79